createdAt,value
2019-06-27T03:27:56.837Z,5.63
2019-06-27T03:28:56.837Z,5.63
2019-06-27T03:29:57.588Z,5.63
2019-06-27T03:30:57.540Z,5.63
2019-06-27T03:34:12.607Z,5.63
2019-06-27T03:35:12.216Z,5.63
2019-06-27T03:36:11.737Z,5.63
2019-06-27T03:37:13.025Z,5.63
2019-06-27T03:41:12.242Z,11.25
2019-06-27T03:44:57.309Z,11.25
2019-06-27T03:45:56.189Z,16.88
2019-06-27T03:46:56.516Z,11.25
2019-06-27T03:47:56.999Z,11.25
2019-06-27T03:51:01.423Z,11.25
2019-06-27T03:52:01.353Z,11.25
2019-06-27T03:53:01.234Z,11.25
2019-06-27T03:54:01.662Z,11.25
2019-06-27T03:55:01.423Z,11.25
2019-06-27T03:56:00.883Z,11.25
2019-06-27T03:57:01.217Z,11.25
2019-06-27T03:58:01.164Z,16.88
2019-06-27T03:59:12.346Z,16.88
2019-06-27T04:00:00.310Z,11.25
2019-06-27T04:01:00.224Z,11.25
2019-06-27T04:02:00.205Z,11.25
2019-06-27T04:03:00.278Z,11.25
2019-06-27T04:04:00.240Z,11.25
2019-06-27T04:05:00.254Z,16.88
2019-06-27T04:06:00.312Z,16.88
2019-06-27T04:07:00.370Z,16.88
2019-06-27T04:08:00.339Z,16.88
2019-06-27T04:09:00.389Z,22.50
2019-06-27T04:10:00.350Z,22.50
2019-06-27T04:11:00.378Z,16.88
2019-06-27T04:12:00.410Z,16.88
2019-06-27T04:13:00.409Z,16.88
2019-06-27T04:14:00.482Z,16.88
2019-06-27T04:15:00.536Z,22.50
2019-06-27T04:16:00.458Z,16.88
2019-06-27T04:17:00.478Z,22.50
2019-06-27T04:18:00.504Z,22.50
2019-06-27T04:19:00.568Z,28.13
2019-06-27T04:20:00.598Z,28.13
2019-06-27T04:21:00.575Z,28.13
2019-06-27T04:22:00.586Z,28.13
2019-06-27T04:23:00.620Z,33.75
2019-06-27T04:24:00.630Z,33.75
2019-06-27T04:25:00.713Z,33.75
2019-06-27T04:26:00.644Z,33.75
2019-06-27T04:27:00.669Z,33.75
2019-06-27T04:28:00.949Z,33.75
2019-06-27T04:29:00.699Z,39.38
2019-06-27T04:30:00.780Z,39.38
2019-06-27T04:31:00.826Z,39.38
2019-06-27T04:32:00.759Z,33.75
2019-06-27T04:33:00.821Z,39.38
2019-06-27T04:34:00.819Z,39.38
2019-06-27T04:35:00.814Z,39.38
2019-06-27T04:36:00.857Z,45.00
2019-06-27T04:37:00.850Z,45.00
2019-06-27T04:38:00.920Z,39.38
2019-06-27T04:39:00.975Z,39.38
2019-06-27T04:40:00.906Z,39.38
2019-06-27T04:41:00.939Z,39.38
2019-06-27T04:42:01.035Z,39.38
2019-06-27T04:43:05.329Z,39.38
2019-06-27T04:44:01.002Z,39.38
2019-06-27T04:45:01.003Z,45.00
2019-06-27T04:46:01.020Z,45.00
2019-06-27T04:47:01.089Z,45.00
2019-06-27T04:48:01.105Z,45.00
2019-06-27T04:49:01.081Z,45.00
2019-06-27T04:50:01.092Z,45.00
2019-06-27T04:51:01.119Z,45.00
2019-06-27T04:52:01.142Z,50.63
2019-06-27T04:53:01.224Z,50.63
2019-06-27T04:54:01.173Z,56.25
2019-06-27T04:55:03.579Z,50.63
2019-06-27T04:56:01.286Z,50.63
2019-06-27T04:57:01.258Z,50.63
2019-06-27T04:58:01.258Z,50.63
2019-06-27T04:59:01.348Z,50.63
2019-06-27T05:00:01.285Z,45.00
2019-06-27T05:01:01.316Z,45.00
2019-06-27T05:02:01.326Z,50.63
2019-06-27T05:03:01.345Z,50.63
2019-06-27T05:04:01.414Z,45.00
2019-06-27T05:05:01.376Z,50.63
2019-06-27T05:06:01.465Z,56.25
2019-06-27T05:07:01.520Z,50.63
2019-06-27T05:08:01.449Z,50.63
2019-06-27T05:09:01.489Z,50.63
2019-06-27T05:10:01.480Z,50.63
2019-06-27T05:11:01.500Z,50.63
2019-06-27T05:12:01.534Z,56.25
2019-06-27T05:13:01.624Z,61.88
2019-06-27T05:14:01.552Z,56.25
2019-06-27T05:15:01.573Z,61.88
2019-06-27T05:16:01.601Z,67.50
2019-06-27T05:17:01.623Z,67.50
2019-06-27T05:18:01.635Z,61.88
2019-06-27T05:19:01.755Z,61.88
2019-06-27T05:20:03.232Z,61.88
2019-06-27T05:21:01.701Z,67.50
2019-06-27T05:22:01.704Z,67.50
2019-06-27T05:23:01.783Z,61.88
2019-06-27T05:24:01.745Z,73.13
2019-06-27T05:25:01.792Z,73.13
2019-06-27T05:26:01.851Z,67.50
2019-06-27T05:27:01.805Z,73.13
2019-06-27T05:28:01.846Z,73.13
2019-06-27T05:29:01.883Z,78.75
2019-06-27T05:30:09.175Z,78.75
2019-06-27T05:31:01.944Z,73.13
2019-06-27T05:32:01.906Z,84.38
2019-06-27T05:33:01.980Z,84.38
2019-06-27T05:34:02.021Z,84.38
2019-06-27T05:35:02.009Z,95.63
2019-06-27T05:36:02.644Z,84.38
2019-06-27T05:37:02.023Z,84.38
2019-06-27T05:38:02.014Z,95.63
2019-06-27T05:39:02.080Z,118.13
2019-06-27T05:40:02.176Z,129.38
2019-06-27T05:41:02.142Z,151.88
2019-06-27T05:42:02.239Z,163.13
2019-06-27T05:43:02.174Z,146.25
2019-06-27T05:44:02.131Z,135.00
2019-06-27T05:45:02.158Z,112.50
2019-06-27T05:46:02.266Z,112.50
2019-06-27T05:47:02.418Z,123.75
2019-06-27T05:48:02.257Z,123.75
2019-06-27T05:49:02.391Z,123.75
2019-06-27T05:50:02.370Z,123.75
2019-06-27T05:51:02.481Z,123.75
2019-06-27T05:52:02.387Z,123.75
2019-06-27T05:53:04.115Z,129.38
2019-06-27T05:54:02.383Z,140.63
2019-06-27T05:55:02.469Z,146.25
2019-06-27T05:56:02.613Z,157.50
2019-06-27T05:57:02.458Z,180.00
2019-06-27T05:58:02.475Z,202.50
2019-06-27T05:59:02.543Z,236.25
2019-06-27T06:00:02.487Z,275.63
2019-06-27T06:01:02.488Z,388.13
2019-06-27T06:02:02.538Z,270.00
2019-06-27T06:03:02.580Z,230.63
2019-06-27T06:04:02.565Z,219.38
2019-06-27T06:05:02.607Z,208.13
2019-06-27T06:06:02.579Z,208.13
2019-06-27T06:07:02.870Z,247.50
2019-06-27T06:08:03.337Z,225.00
2019-06-27T06:09:05.309Z,213.75
2019-06-27T06:10:02.696Z,236.25
2019-06-27T06:11:02.743Z,286.88
2019-06-27T06:12:02.719Z,286.88
2019-06-27T06:13:02.800Z,405.00
2019-06-27T06:14:02.790Z,568.13
2019-06-27T06:15:02.859Z,326.25
2019-06-27T06:16:02.803Z,326.25
2019-06-27T06:17:03.714Z,309.38
2019-06-27T06:18:02.895Z,427.50
2019-06-27T06:19:02.862Z,405.00
2019-06-27T06:20:02.947Z,292.50
2019-06-27T06:21:03.640Z,326.25
2019-06-27T06:22:03.126Z,343.13
2019-06-27T06:23:03.499Z,360.00
2019-06-27T06:24:02.966Z,365.63
2019-06-27T06:25:03.115Z,528.75
2019-06-27T06:26:03.454Z,725.63
2019-06-27T06:27:03.955Z,607.50
2019-06-27T06:28:03.056Z,736.88
2019-06-27T06:29:03.862Z,652.50
2019-06-27T06:30:03.264Z,714.38
2019-06-27T06:31:03.287Z,686.25
2019-06-27T06:32:06.165Z,675.00
2019-06-27T06:33:03.500Z,500.63
2019-06-27T06:34:03.273Z,517.50
2019-06-27T06:35:03.269Z,568.13
2019-06-27T06:36:03.255Z,528.75
2019-06-27T06:37:03.337Z,534.38
2019-06-27T06:38:03.309Z,388.13
2019-06-27T06:39:03.351Z,579.38
2019-06-27T06:40:03.448Z,343.13
2019-06-27T06:41:04.049Z,388.13
2019-06-27T06:46:28.859Z,382.50
2019-06-27T06:48:27.292Z,360.00
2019-06-27T06:49:25.997Z,551.25
2019-06-27T06:50:24.904Z,528.75
2019-06-27T06:52:28.056Z,551.25
2019-06-27T06:53:37.695Z,438.75
2019-06-27T11:01:22.242Z,196.88
2019-06-27T11:02:08.162Z,196.88
2019-06-27T11:03:15.327Z,196.88
